Nearby METAR Reports

 

KOXC - Oxford/Waterbury, Connecticut, USA
Distance from station: SE 8mi, 12km
Updated: Sun, 21-Dec-2014 1:35am EST
Overcast
Overcast
 Wind from calm
Wind: Calm
Temperature: 30°F , -1°C
Dew Point: 21°F , -6°C
Humidity: 69%
Barometer: 30.25 inHg , 1024.4 hPa
Clouds: Overcast
Visibility: 10 miles , 16 km
Cloud details: Overcast 1200 ft
2014/12/21 06:35 KOXC 210635Z 00000KT 10SM OVC012 M01/M06 A3025 RMK AO1
KDXR - Danbury, Connecticut, USA
Distance from station: SW 19mi, 30km
Updated: Sun, 21-Dec-2014 1:18am EST
Light snow, Overcast
Light snow, Overcast
 Wind from W
Wind: W 3 mph , 6 km/h
Temperature: 28°F , -2°C
Dew Point: 21°F , -6°C
Humidity: 74%
Barometer: 30.28 inHg , 1025.4 hPa
Summary: Light Snow
Clouds: Overcast
Visibility: 4 miles , 6 km
Cloud details: Overcast 2000 ft
2014/12/21 06:18 KDXR 210618Z AUTO 26003KT 4SM -SN OVC020 M02/M06 A3028 RMK AO2 P0000 T10221056
 
KMMK - Meriden, Connecticut, USA
Distance from station: E 20mi, 33km
Updated: Sun, 21-Dec-2014 12:53am EST
Overcast
Overcast
 Wind from NNE
Wind: NNE 6 mph , 9 km/h
Temperature: 34°F , 1°C
Wind Chill: 29°F , -2°C
Dew Point: 27°F , -3°C
Humidity: 75%
Barometer: 30.27 inHg , 1025.1 hPa
Clouds: Overcast
Visibility: 10 miles , 16 km
Cloud details: Overcast 1600 ft
2014/12/21 05:53 KMMK 210553Z AUTO 02005KT 10SM OVC016 01/M03 A3027 RMK AO2 SLP251 T00061033 10006 21011 58007 TSNO
KBDR - Bridgeport, Connecticut, USA
Distance from station: S 27mi, 44km
Updated: Sun, 21-Dec-2014 12:52am EST
Overcast
Overcast
 Wind from NNW
Wind: NNW 3 mph , 6 km/h
Temperature: 34°F , 1°C
Dew Point: 27°F , -3°C
Humidity: 75%
Barometer: 30.28 inHg , 1025.4 hPa
Clouds: Overcast
Visibility: 10 miles , 16 km
Cloud details: Overcast 2600 ft
2014/12/21 05:52 KBDR 210552Z AUTO 34003KT 10SM OVC026 01/M03 A3028 RMK AO2 SLP252 T00061033 10011 20000 56005
 
KHVN - New Haven/Tweed, Connecticut, USA
Distance from station: SE 27mi, 44km
Updated: Sun, 21-Dec-2014 12:53am EST
Overcast
Overcast
 Wind from N
Wind: N 6 mph , 9 km/h
Temperature: 36°F , 2°C
Wind Chill: 31°F , -1°C
Dew Point: 25°F , -4°C
Humidity: 65%
Barometer: 30.27 inHg , 1025.1 hPa
Clouds: Overcast
Visibility: 10 miles , 16 km
Cloud details: Overcast 1700 ft
2014/12/21 05:53 KHVN 210553Z AUTO 01005KT 10SM OVC017 02/M04 A3027 RMK AO2 SLP249 T00171044 10017 20011 58007
KHFD - Hartford/Brainar, Connecticut, USA
Distance from station: ENE 32mi, 52km
Updated: Sun, 21-Dec-2014 12:53am EST
Overcast
Overcast
 Wind from varies
Wind: varies 6 mph , 9 km/h
Temperature: 32°F , 0°C
Wind Chill: 26°F , -3°C
Dew Point: 27°F , -3°C
Humidity: 80%
Barometer: 30.28 inHg , 1025.4 hPa
Clouds: Overcast
Visibility: 10 miles , 16 km
Cloud details: Overcast 1900 ft
2014/12/21 05:53 KHFD 210553Z AUTO VRB05KT 10SM OVC019 00/M03 A3028 RMK AO2 SLP253 T00001028 10006 21006 58004
 
KPOU - Poughkeepsie, New York, USA
Distance from station: W 35mi, 56km
Updated: Sun, 21-Dec-2014 12:53am EST
Light snow, Overcast
Light snow, Overcast
 Wind from calm
Wind: Calm
Temperature: 30°F , -1°C
Dew Point: 21°F , -6°C
Humidity: 69%
Barometer: 30.29 inHg , 1025.7 hPa
Summary: Light Snow
Clouds: Overcast
Visibility: 7 miles , 11 km
Cloud details: Overcast 2500 ft
2014/12/21 05:53 KPOU 210553Z AUTO 00000KT 7SM -SN OVC025 M01/M06 A3029 RMK AO2 SNB52 SLP255 P0000 60000 T10111061 11011 21011 56008 TSNO
KBDL - Windsor Locks, Connecticut, USA
Distance from station: NE 38mi, 62km
Updated: Sun, 21-Dec-2014 12:51am EST
Overcast
Overcast
 Wind from N
Wind: N 7 mph , 11 km/h
Temperature: 32°F , 0°C
Wind Chill: 25°F , -4°C
Dew Point: 27°F , -3°C
Humidity: 80%
Barometer: 30.27 inHg , 1025.1 hPa
Clouds: Overcast
Visibility: 9 miles , 14 km
Cloud details: Mostly cloudy 1900 ft
Overcast 2900 ft
2014/12/21 05:51 KBDL 210551Z 36006KT 9SM BKN019 OVC029 00/M03 A3027 RMK AO2 SLP251 T00001028 10006 21006 57006 $
 
KSNC - Chester, Connecticut, USA
Distance from station: ESE 39mi, 63km
Updated: Sun, 21-Dec-2014 1:35am EST
Overcast
Overcast
 Wind from N
Wind: N 3 mph , 6 km/h
Temperature: 32°F , 0°C
Dew Point: 28°F , -2°C
Humidity: 87%
Barometer: 30.25 inHg , 1024.4 hPa
Clouds: Overcast
Visibility: 10 miles , 16 km
Cloud details: Overcast 1000 ft
2014/12/21 06:35 KSNC 210635Z AUTO 35003KT 10SM OVC010 00/M02 A3025 RMK AO2
KHPN - White Plains, New York, USA
Distance from station: SW 42mi, 67km
Updated: Sun, 21-Dec-2014 12:56am EST
Overcast
Overcast
 Wind from NW
Wind: NW 6 mph , 9 km/h
Temperature: 30°F , -1°C
Wind Chill: 24°F , -4°C
Dew Point: 25°F , -4°C
Humidity: 80%
Barometer: 30.26 inHg , 1024.7 hPa
Clouds: Overcast
Visibility: 10 miles , 16 km
Cloud details: Overcast 2000 ft
2014/12/21 05:56 KHPN 210556Z 32005KT 10SM OVC020 M01/M04 A3026 RMK AO2 SLP254 T10111044 11011 21017 55005
 
KSWF - Newburgh/Stewart, New York, USA
Distance from station: W 45mi, 72km
Updated: Sat, 20-Dec-2014 7:45pm EST
NOT Current
Overcast
Overcast
 Wind from varies
Wind: varies 3 mph , 6 km/h
Temperature: 28°F , -2°C
Dew Point: 23°F , -5°C
Humidity: 80%
Barometer: 30.29 inHg , 1025.7 hPa
Clouds: Overcast
Visibility: 10 miles , 16 km
Cloud details: Overcast 1800 ft
2014/12/21 00:45 KSWF 210045Z VRB03KT 10SM OVC018 M02/M05 A3029
KBAF - Westfield, Massachusetts, USA
Distance from station: NNE 50mi, 80km
Updated: Sun, 21-Dec-2014 12:53am EST
Overcast
Overcast
 Wind from N
Wind: N 6 mph , 9 km/h
Temperature: 30°F , -1°C
Wind Chill: 24°F , -4°C
Dew Point: 27°F , -3°C
Humidity: 86%
Barometer: 30.27 inHg , 1025.1 hPa
Clouds: Overcast
Visibility: 10 miles , 16 km
Cloud details: Partly cloudy 1800 ft
Mostly cloudy 2400 ft
Overcast 3000 ft
2014/12/21 05:53 KBAF 210553Z 36005KT 10SM SCT018 BKN024 OVC030 M01/M03 A3027 RMK AO2 SLP257 T10061033 10011 21006 56007